KOWD

Norwood Memorial Airport

Norwood, Massachusetts, USA
METAR KOWD 191053Z 03007G14KT 1 1/2SM BR BKN008 OVC012 18/17 A2987 RMK AO2 SLP113 T01830172
Observed Flight Rules
Sep-19 @ 10:53 UTC (42 minutes ago) Instrument Flight Rules
Wind Visibility Clouds Conditions
30° at 7 knots
 Gusting to 14 knots
1 1/2 miles
  • Broken at 800' AGL
  • Overcast at 1,200' AGL
  • Mist
Temperatures Readings
Current 18°C / 64°F
Dewpoint 17°C / 63°F
Humidity 94%
Altimeter 29.87" Hg
Pressure 1011.3 hPa
Elevation 19
METAR KOWD 191053Z 03007G14KT 1 1/2SM BR BKN008 OVC012 18/17 A2987 RMK AO2 SLP113 T01830172
Observed Flight Rules
Sep-19 @ 10:53 UTC
(42 minutes ago)
IFR
Wind Visibility
30° at 7 knots
 Gusting to 14 knots
1 1/2 miles
Clouds
  • Broken at 800' AGL
  • Overcast at 1,200' AGL
Conditions
  • Mist
Temperature Dewpoint
18°C / 64°F 17°C / 63°F
Humidity Altimeter Pressure
94% 29.87" Hg 1011.3 hPa